createdAt,value
2019-05-02T00:02:28.877Z,100675.58
2019-05-02T00:04:57.686Z,100671.37
2019-05-02T00:07:28.595Z,100670.64
2019-05-02T00:09:59.523Z,100669.80
2019-05-02T00:12:30.431Z,100672.13
2019-05-02T00:15:03.382Z,100671.48
2019-05-02T00:17:35.807Z,100668.39
2019-05-02T00:20:09.512Z,100668.02
2019-05-02T00:22:40.458Z,100663.03
2019-05-02T00:25:16.049Z,100667.78
2019-05-02T00:27:43.992Z,100670.34
2019-05-02T00:30:15.470Z,100669.86
2019-05-02T00:32:46.380Z,100666.32
2019-05-02T00:35:17.298Z,100663.69
2019-05-02T00:37:48.227Z,100658.39
2019-05-02T00:40:20.269Z,100659.21
2019-05-02T00:42:53.182Z,100655.25
2019-05-02T00:45:25.941Z,100653.16
2019-05-02T00:47:58.981Z,100647.34
2019-05-02T00:50:31.545Z,100648.35
2019-05-02T00:53:02.455Z,100645.48
2019-05-02T00:55:35.447Z,100645.17
2019-05-02T00:58:06.394Z,100636.66
2019-05-02T01:00:41.463Z,100639.42
2019-05-02T01:03:16.221Z,100636.53
2019-05-02T01:05:44.985Z,100629.03
2019-05-02T01:08:15.894Z,100626.66
2019-05-02T01:10:46.827Z,100627.19
2019-05-02T01:13:19.121Z,100626.20
2019-05-02T01:15:50.240Z,100625.79
2019-05-02T01:18:22.782Z,100623.17
2019-05-02T01:20:58.094Z,100626.95
2019-05-02T01:23:27.569Z,100625.48
2019-05-02T01:25:59.113Z,100626.02
2019-05-02T01:28:49.161Z,100627.05
2019-05-02T01:31:21.924Z,100628.31
2019-05-02T01:33:54.464Z,100621.34
2019-05-02T01:36:43.202Z,100622.48
2019-05-02T01:39:14.123Z,100617.81
2019-05-02T01:41:45.047Z,100612.97
2019-05-02T01:44:15.952Z,100616.15
2019-05-02T01:46:46.874Z,100615.97
2019-05-02T01:49:21.815Z,100618.83
2019-05-02T01:51:50.421Z,100613.36
2019-05-02T01:54:21.323Z,100613.64
2019-05-02T01:56:52.258Z,100612.97
2019-05-02T01:59:23.194Z,100608.34
2019-05-02T02:01:57.953Z,100608.56
2019-05-02T02:04:26.727Z,100604.23
2019-05-02T02:06:57.661Z,100600.67
2019-05-02T02:09:28.566Z,100596.31
2019-05-02T02:11:59.485Z,100594.53
2019-05-02T02:14:30.392Z,100601.58
2019-05-02T02:17:01.283Z,100595.40
2019-05-02T02:19:39.116Z,100599.88
2019-05-02T02:22:10.764Z,100597.88
2019-05-02T02:24:43.310Z,100596.77
2019-05-02T02:27:14.220Z,100590.22
2019-05-02T02:29:45.372Z,100591.07
2019-05-02T02:32:20.010Z,100584.48
2019-05-02T02:34:48.939Z,100582.83
2019-05-02T02:37:19.858Z,100579.37
2019-05-02T02:39:54.136Z,100577.45
2019-05-02T02:42:24.925Z,100574.94
2019-05-02T02:44:57.630Z,100575.66
2019-05-02T02:47:28.791Z,100578.23
2019-05-02T02:50:02.758Z,100574.27
2019-05-02T02:52:38.096Z,100568.73
2019-05-02T02:55:07.191Z,100572.41
2019-05-02T02:57:38.115Z,100566.11
2019-05-02T03:00:11.068Z,100561.70
2019-05-02T03:02:47.634Z,100557.62
2019-05-02T03:05:18.974Z,100560.82
2019-05-02T03:07:46.876Z,100560.88
2019-05-02T03:10:17.779Z,100557.43
2019-05-02T03:13:06.673Z,100558.20
2019-05-02T03:15:39.217Z,100560.78
2019-05-02T03:18:10.121Z,100549.87
2019-05-02T03:20:42.128Z,100550.75
2019-05-02T03:23:15.324Z,100551.95
2019-05-02T03:25:50.872Z,100545.51
2019-05-02T03:28:20.960Z,100545.13
2019-05-02T03:30:51.893Z,100543.75
2019-05-02T03:33:22.811Z,100534.65
2019-05-02T03:35:53.751Z,100539.06
2019-05-02T03:38:32.160Z,100535.13
2019-05-02T03:40:57.240Z,100535.42
2019-05-02T03:43:28.170Z,100531.83
2019-05-02T03:45:59.047Z,100535.22
2019-05-02T03:48:30.241Z,100531.44
2019-05-02T03:51:04.897Z,100523.69
2019-05-02T03:53:33.847Z,100531.78
2019-05-02T03:56:10.583Z,100529.50
2019-05-02T03:58:38.957Z,100526.73
2019-05-02T04:01:09.864Z,100524.23
2019-05-02T04:03:43.473Z,100522.80
2019-05-02T04:06:21.275Z,100525.27
2019-05-02T04:08:46.543Z,100523.67
2019-05-02T04:11:21.011Z,100522.19
2019-05-02T04:13:52.682Z,100527.27
2019-05-02T04:16:23.920Z,100518.07
2019-05-02T04:18:58.260Z,100518.69
2019-05-02T04:21:28.912Z,100521.11
2019-05-02T04:24:12.856Z,100518.03
2019-05-02T04:26:32.490Z,100514.58
2019-05-02T04:29:03.384Z,100515.05
2019-05-02T04:31:34.322Z,100517.86
2019-05-02T04:34:13.695Z,100509.34
2019-05-02T04:36:37.816Z,100509.52
2019-05-02T04:39:15.137Z,100504.66
2019-05-02T04:41:42.447Z,100504.16
2019-05-02T04:44:13.647Z,100507.39
2019-05-02T04:46:44.561Z,100506.56
2019-05-02T04:49:19.993Z,100505.30
2019-05-02T04:51:59.900Z,100508.30
2019-05-02T04:54:25.736Z,100504.81
2019-05-02T04:56:55.488Z,100507.92
2019-05-02T04:59:28.471Z,100504.92
2019-05-02T05:02:01.276Z,100500.17
2019-05-02T05:04:33.179Z,100501.92
2019-05-02T05:07:04.416Z,100502.69
2019-05-02T05:09:35.337Z,100497.06
2019-05-02T05:12:07.161Z,100498.37
2019-05-02T05:14:39.249Z,100503.98
2019-05-02T05:17:09.896Z,100497.27
2019-05-02T05:19:40.798Z,100502.15
2019-05-02T05:22:12.151Z,100504.81
2019-05-02T05:24:44.741Z,100504.38
2019-05-02T05:27:18.957Z,100499.62
2019-05-02T05:29:48.687Z,100503.67
2019-05-02T05:32:19.757Z,100504.04
2019-05-02T05:34:50.666Z,100500.06
2019-05-02T05:37:21.732Z,100501.29
2019-05-02T05:39:53.923Z,100508.56
2019-05-02T05:42:30.193Z,100502.31
2019-05-02T05:44:58.324Z,100504.20
2019-05-02T05:47:28.605Z,100500.84
2019-05-02T05:50:01.201Z,100498.96
2019-05-02T05:52:33.011Z,100501.63
2019-05-02T05:55:07.860Z,100501.53
2019-05-02T05:57:38.865Z,100499.73
2019-05-02T06:00:15.917Z,100501.59
2019-05-02T06:02:52.722Z,100500.32
2019-05-02T06:05:17.070Z,100501.48
2019-05-02T06:07:47.805Z,100504.47
2019-05-02T06:10:18.708Z,100509.67
2019-05-02T06:12:49.641Z,100498.16
2019-05-02T06:15:20.550Z,100493.67
2019-05-02T06:17:51.473Z,100497.94
2019-05-02T06:20:25.678Z,100497.87
2019-05-02T06:22:59.950Z,100494.22
2019-05-02T06:25:34.277Z,100498.81
2019-05-02T06:28:05.474Z,100502.64
2019-05-02T06:30:34.086Z,100502.28
2019-05-02T06:33:05.050Z,100504.42
2019-05-02T06:35:35.959Z,100503.06
2019-05-02T06:38:06.859Z,100508.21
2019-05-02T06:40:39.279Z,100498.98
2019-05-02T06:43:11.419Z,100497.00
2019-05-02T06:45:42.500Z,100496.47
2019-05-02T06:48:17.739Z,100491.17
2019-05-02T06:50:47.195Z,100491.39
2019-05-02T06:53:18.132Z,100492.20
2019-05-02T06:55:49.034Z,100485.59
2019-05-02T06:58:19.962Z,100482.07
2019-05-02T07:00:58.442Z,100472.74
2019-05-02T07:03:23.582Z,100467.44
2019-05-02T07:05:58.695Z,100471.53
2019-05-02T07:08:27.350Z,100467.00
2019-05-02T07:11:01.276Z,100468.03
2019-05-02T07:13:30.887Z,100467.59
2019-05-02T07:16:03.442Z,100462.23
2019-05-02T07:18:41.987Z,100470.16
2019-05-02T07:21:12.146Z,100464.22
2019-05-02T07:23:48.700Z,100464.02
2019-05-02T07:26:21.091Z,100468.63
2019-05-02T07:28:49.683Z,100465.75
2019-05-02T07:31:20.588Z,100467.81
2019-05-02T07:33:51.490Z,100467.50
2019-05-02T07:36:22.397Z,100461.65
2019-05-02T07:38:57.589Z,100461.50
2019-05-02T07:41:28.930Z,100462.70
2019-05-02T07:43:58.558Z,100459.16
2019-05-02T07:46:29.553Z,100459.41
2019-05-02T07:49:00.450Z,100458.09
2019-05-02T07:51:31.374Z,100455.92
2019-05-02T07:54:02.299Z,100449.26
2019-05-02T07:56:33.489Z,100457.55
2019-05-02T07:59:04.241Z,100453.63
2019-05-02T08:01:35.172Z,100460.67
2019-05-02T08:04:11.274Z,100458.91
2019-05-02T08:06:40.244Z,100455.66
2019-05-02T08:09:11.270Z,100457.02
2019-05-02T08:11:42.202Z,100456.47
2019-05-02T08:14:13.574Z,100446.70
2019-05-02T08:16:44.492Z,100446.69
2019-05-02T08:19:15.404Z,100450.07
2019-05-02T08:21:46.314Z,100453.25
2019-05-02T08:24:17.214Z,100445.64
2019-05-02T08:26:53.560Z,100449.80
2019-05-02T08:29:28.782Z,100451.75
2019-05-02T08:31:58.070Z,100449.56
2019-05-02T08:34:32.590Z,100450.70
2019-05-02T08:37:04.888Z,100459.75
2019-05-02T08:39:35.855Z,100454.51
2019-05-02T08:42:06.759Z,100447.34
2019-05-02T08:44:50.359Z,100453.51
2019-05-02T08:47:18.719Z,100453.87
2019-05-02T08:49:42.896Z,100458.62
2019-05-02T08:52:13.862Z,100455.06
2019-05-02T08:54:44.775Z,100457.99
2019-05-02T08:57:15.690Z,100462.81
2019-05-02T08:59:46.628Z,100462.00
2019-05-02T09:02:21.051Z,100462.55
2019-05-02T09:04:58.301Z,100455.44
2019-05-02T09:07:22.839Z,100456.39
2019-05-02T09:09:55.559Z,100463.99
2019-05-02T09:12:26.601Z,100462.56
2019-05-02T09:14:57.527Z,100457.06
2019-05-02T09:17:36.021Z,100463.48
2019-05-02T09:20:05.070Z,100460.37
2019-05-02T09:22:35.405Z,100466.12
2019-05-02T09:25:08.150Z,100461.44
2019-05-02T09:27:39.144Z,100456.56
2019-05-02T09:30:12.199Z,100458.12
2019-05-02T09:32:43.238Z,100459.91
2019-05-02T09:35:14.140Z,100459.12
2019-05-02T09:37:45.045Z,100458.80
2019-05-02T09:40:16.854Z,100456.55
2019-05-02T09:42:53.265Z,100452.48
2019-05-02T09:45:22.754Z,100453.23
2019-05-02T09:48:03.892Z,100450.10
2019-05-02T09:50:31.227Z,100452.48
2019-05-02T09:52:59.135Z,100446.66
2019-05-02T09:55:31.753Z,100451.77
2019-05-02T09:58:02.879Z,100450.46
2019-05-02T10:00:47.379Z,100450.32
2019-05-02T10:03:18.854Z,100449.67
2019-05-02T10:05:49.797Z,100447.58
2019-05-02T10:08:22.813Z,100443.42
2019-05-02T10:10:54.594Z,100443.20
2019-05-02T10:13:25.526Z,100440.27
2019-05-02T10:15:57.195Z,100443.33
2019-05-02T10:18:30.186Z,100431.30
2019-05-02T10:21:02.808Z,100430.34
2019-05-02T10:23:33.929Z,100434.38
2019-05-02T10:26:05.068Z,100429.86
2019-05-02T10:28:35.981Z,100435.19
2019-05-02T10:31:06.971Z,100427.88
2019-05-02T10:33:37.899Z,100423.03
2019-05-02T10:36:11.890Z,100413.02
2019-05-02T10:38:42.701Z,100420.67
2019-05-02T10:41:13.693Z,100413.83
2019-05-02T10:43:46.890Z,100418.02
2019-05-02T10:46:23.008Z,100415.77
2019-05-02T10:48:55.594Z,100407.42
2019-05-02T10:51:26.432Z,100408.33
2019-05-02T10:53:57.384Z,100408.81
2019-05-02T10:56:28.292Z,100402.98
2019-05-02T10:58:59.228Z,100403.62
2019-05-02T11:01:32.358Z,100397.77
2019-05-02T11:04:07.957Z,100389.86
2019-05-02T11:06:42.734Z,100386.02
2019-05-02T11:09:12.039Z,100383.72
2019-05-02T11:11:43.260Z,100383.45
2019-05-02T11:14:18.365Z,100383.23
2019-05-02T11:16:52.510Z,100380.75
2019-05-02T11:19:31.835Z,100383.27
2019-05-02T11:22:03.010Z,100385.28
2019-05-02T11:24:34.484Z,100374.88
2019-05-02T11:27:08.141Z,100374.04
2019-05-02T11:29:38.037Z,100369.03
2019-05-02T11:32:08.966Z,100372.70
2019-05-02T11:34:41.966Z,100371.64
2019-05-02T11:37:12.472Z,100364.22
2019-05-02T11:39:49.985Z,100356.51
2019-05-02T11:42:17.638Z,100350.68
2019-05-02T11:44:48.625Z,100351.91
2019-05-02T11:47:22.763Z,100347.29
2019-05-02T11:49:55.914Z,100347.75
2019-05-02T11:52:27.357Z,100345.02
2019-05-02T11:54:57.660Z,100334.95
2019-05-02T11:57:30.768Z,100330.39
2019-05-02T12:00:04.907Z,100318.95
2019-05-02T12:02:34.623Z,100318.96
2019-05-02T12:05:08.708Z,100320.28
2019-05-02T12:07:41.694Z,100318.45
2019-05-02T12:10:12.578Z,100310.42
2019-05-02T12:12:43.599Z,100303.78
2019-05-02T12:15:14.502Z,100295.78
2019-05-02T12:17:45.430Z,100294.05
2019-05-02T12:20:16.336Z,100296.06
2019-05-02T12:22:47.287Z,100291.31
2019-05-02T12:25:18.164Z,100292.05
2019-05-02T12:27:49.092Z,100286.30
2019-05-02T12:30:20.009Z,100285.63
2019-05-02T12:32:53.070Z,100285.00
2019-05-02T12:35:23.901Z,100282.49
2019-05-02T12:37:55.359Z,100275.09
2019-05-02T12:40:26.337Z,100273.73
2019-05-02T12:42:57.248Z,100274.84
2019-05-02T12:45:28.238Z,100278.58
2019-05-02T12:47:59.188Z,100279.11
2019-05-02T12:50:32.104Z,100279.40
2019-05-02T12:53:03.061Z,100271.27
2019-05-02T12:55:34.070Z,100265.94
2019-05-02T12:58:04.973Z,100276.48
2019-05-02T13:00:35.878Z,100272.28
2019-05-02T13:03:12.556Z,100273.25
2019-05-02T13:05:43.462Z,100271.48
2019-05-02T13:08:14.382Z,100264.08
2019-05-02T13:11:06.686Z,100270.06
2019-05-02T13:13:35.889Z,100264.53
2019-05-02T13:16:06.922Z,100267.61
2019-05-02T13:18:38.032Z,100268.05
2019-05-02T13:21:15.180Z,100259.62
2019-05-02T13:23:53.886Z,100253.78
2019-05-02T13:26:27.125Z,100255.27
2019-05-02T13:28:57.420Z,100252.17
2019-05-02T13:31:31.994Z,100255.27
2019-05-02T13:34:06.545Z,100248.96
2019-05-02T13:36:44.736Z,100254.05
2019-05-02T13:39:19.417Z,100245.95
2019-05-02T13:41:52.053Z,100247.75
2019-05-02T13:44:24.808Z,100246.50
2019-05-02T13:46:55.718Z,100245.81
2019-05-02T13:49:26.619Z,100239.92
2019-05-02T13:51:57.527Z,100241.17
2019-05-02T13:54:28.422Z,100239.98
2019-05-02T13:57:00.001Z,100233.03
2019-05-02T13:59:30.919Z,100236.00
2019-05-02T14:02:02.750Z,100231.70
2019-05-02T14:04:33.104Z,100232.74
2019-05-02T14:07:07.725Z,100226.78
2019-05-02T14:09:38.129Z,100226.05
2019-05-02T14:12:19.449Z,100233.80
2019-05-02T14:14:51.924Z,100233.95
2019-05-02T14:17:23.070Z,100235.98
2019-05-02T14:20:07.433Z,100234.98
2019-05-02T14:22:26.575Z,100234.80
2019-05-02T14:24:57.472Z,100237.77
2019-05-02T14:27:28.386Z,100230.78
2019-05-02T14:29:59.315Z,100236.30
2019-05-02T14:32:32.657Z,100250.09
2019-05-02T14:35:18.641Z,100240.11
2019-05-02T14:37:48.925Z,100235.62
2019-05-02T14:40:22.408Z,100224.69
2019-05-02T14:42:57.836Z,100233.83
2019-05-02T14:45:30.706Z,100236.45
2019-05-02T14:48:17.744Z,100232.96
2019-05-02T14:50:32.083Z,100230.81
2019-05-02T14:53:05.742Z,100220.45
2019-05-02T14:55:38.282Z,100227.18
2019-05-02T14:58:09.187Z,100228.36
2019-05-02T15:00:45.819Z,100221.45
2019-05-02T15:03:14.337Z,100222.23
2019-05-02T15:05:45.247Z,100212.77
2019-05-02T15:08:16.160Z,100210.41
2019-05-02T15:10:52.493Z,100212.04
2019-05-02T15:13:20.062Z,100208.00
2019-05-02T15:15:52.896Z,100208.93
2019-05-02T15:18:23.595Z,100211.14
2019-05-02T15:20:54.505Z,100207.52
2019-05-02T15:23:25.422Z,100209.45
2019-05-02T15:25:56.325Z,100203.58
2019-05-02T15:28:30.571Z,100205.34
2019-05-02T15:31:07.399Z,100202.30
2019-05-02T15:33:42.051Z,100198.16
2019-05-02T15:36:13.904Z,100194.83
2019-05-02T15:38:47.364Z,100193.39
2019-05-02T15:41:17.436Z,100193.16
2019-05-02T15:43:49.331Z,100195.94
2019-05-02T15:46:23.694Z,100192.09
2019-05-02T15:48:57.113Z,100184.85
2019-05-02T15:51:25.633Z,100185.84
2019-05-02T15:54:08.363Z,100182.34
2019-05-02T15:56:37.892Z,100184.25
2019-05-02T15:59:08.809Z,100183.13
2019-05-02T16:01:48.028Z,100184.89
2019-05-02T16:04:24.147Z,100183.45
2019-05-02T16:06:54.018Z,100184.31
2019-05-02T16:09:24.926Z,100173.05
2019-05-02T16:11:57.080Z,100177.90
2019-05-02T16:14:32.401Z,100178.34
2019-05-02T16:17:01.842Z,100170.00
2019-05-02T16:19:35.664Z,100168.27
2019-05-02T16:22:13.933Z,100170.06
2019-05-02T16:24:48.841Z,100169.33
2019-05-02T16:27:21.959Z,100163.00
2019-05-02T16:29:50.109Z,100166.35
2019-05-02T16:32:22.661Z,100166.83
2019-05-02T16:34:56.067Z,100167.02
2019-05-02T16:37:26.979Z,100162.73
2019-05-02T16:39:57.890Z,100161.09
2019-05-02T16:42:28.784Z,100155.55
2019-05-02T16:44:59.693Z,100156.80
2019-05-02T16:47:32.460Z,100163.95
2019-05-02T16:50:04.835Z,100157.34
2019-05-02T16:52:38.027Z,100157.80
2019-05-02T16:55:08.401Z,100159.55
2019-05-02T16:57:39.303Z,100156.73
2019-05-02T17:00:15.183Z,100154.30
2019-05-02T17:02:46.562Z,100154.23
2019-05-02T17:05:17.466Z,100151.12
2019-05-02T17:07:56.744Z,100146.98
2019-05-02T17:10:29.289Z,100150.22
2019-05-02T17:13:00.946Z,100141.05
2019-05-02T17:15:35.236Z,100148.42
2019-05-02T17:18:12.757Z,100140.25
2019-05-02T17:20:39.820Z,100143.55
2019-05-02T17:23:12.693Z,100136.59
2019-05-02T17:25:43.334Z,100131.16
2019-05-02T17:28:14.232Z,100125.63
2019-05-02T17:30:45.135Z,100125.70
2019-05-02T17:33:16.501Z,100128.64
2019-05-02T17:35:52.274Z,100132.84
2019-05-02T17:38:24.948Z,100132.07
2019-05-02T17:40:54.494Z,100130.76
2019-05-02T17:43:25.702Z,100130.20
2019-05-02T17:45:56.635Z,100137.73
2019-05-02T17:48:29.347Z,100133.95
2019-05-02T17:51:08.466Z,100139.00
2019-05-02T17:53:43.230Z,100139.30
2019-05-02T17:56:19.985Z,100143.02
2019-05-02T17:58:52.861Z,100139.52
2019-05-02T18:01:18.815Z,100147.31
2019-05-02T18:03:49.715Z,100152.53
2019-05-02T18:06:30.757Z,100145.64
2019-05-02T18:08:55.383Z,100141.47
2019-05-02T18:11:29.699Z,100141.38
2019-05-02T18:13:59.004Z,100136.66
2019-05-02T18:16:29.907Z,100143.11
2019-05-02T18:19:01.812Z,100142.34
2019-05-02T18:21:32.927Z,100139.36
2019-05-02T18:24:06.039Z,100146.89
2019-05-02T18:26:37.562Z,100141.89
2019-05-02T18:29:08.468Z,100149.13
2019-05-02T18:31:42.120Z,100148.33
2019-05-02T18:34:20.362Z,100164.55
2019-05-02T18:36:44.992Z,100188.83
2019-05-02T18:39:15.890Z,100203.22
2019-05-02T18:41:46.806Z,100191.24
2019-05-02T18:44:18.725Z,100197.23
2019-05-02T18:46:49.704Z,100197.30
2019-05-02T18:49:21.893Z,100192.58
2019-05-02T18:51:57.267Z,100198.05
2019-05-02T18:54:25.844Z,100195.59
2019-05-02T18:56:56.766Z,100205.20
2019-05-02T18:59:27.671Z,100209.04
2019-05-02T19:01:59.821Z,100205.89
2019-05-02T19:04:38.146Z,100213.32
2019-05-02T19:07:07.461Z,100214.13
2019-05-02T19:09:48.183Z,100207.67
2019-05-02T19:12:13.575Z,100210.70
2019-05-02T19:14:42.022Z,100209.93
2019-05-02T19:17:12.925Z,100212.79
2019-05-02T19:19:43.848Z,100212.02
2019-05-02T19:22:17.068Z,100212.52
2019-05-02T19:24:47.365Z,100204.81
2019-05-02T19:27:21.059Z,100210.30
2019-05-02T19:29:54.611Z,100210.87
2019-05-02T19:32:28.217Z,100204.58
2019-05-02T19:34:57.709Z,100205.55
2019-05-02T19:37:31.514Z,100208.70
2019-05-02T19:40:02.555Z,100213.37
2019-05-02T19:42:33.510Z,100215.80
2019-05-02T19:45:11.603Z,100219.00
2019-05-02T19:47:38.650Z,100222.94
2019-05-02T19:50:33.711Z,100222.23
2019-05-02T19:53:04.391Z,100219.80
2019-05-02T19:55:35.525Z,100223.02
2019-05-02T19:58:06.684Z,100229.27
2019-05-02T20:00:42.275Z,100236.17
2019-05-02T20:03:13.703Z,100237.12
2019-05-02T20:05:42.907Z,100238.50
2019-05-02T20:08:14.607Z,100238.95
2019-05-02T20:10:49.227Z,100249.17
2019-05-02T20:13:20.331Z,100259.73
2019-05-02T20:15:57.140Z,100255.71
2019-05-02T20:18:43.850Z,100274.89
2019-05-02T20:21:23.461Z,100273.07
2019-05-02T20:23:47.062Z,100274.94
2019-05-02T20:26:17.950Z,100273.39
2019-05-02T20:28:48.867Z,100282.34
2019-05-02T20:31:21.708Z,100280.83
2019-05-02T20:33:52.412Z,100282.34
2019-05-02T20:36:23.299Z,100286.88
2019-05-02T20:38:55.591Z,100289.89
2019-05-02T20:41:26.484Z,100277.83
2019-05-02T20:43:57.379Z,100286.63
2019-05-02T20:46:28.302Z,100294.35
2019-05-02T20:48:59.232Z,100295.00
2019-05-02T20:51:31.938Z,100296.88
2019-05-02T20:54:02.729Z,100292.91
2019-05-02T20:56:33.654Z,100292.39
2019-05-02T20:59:04.537Z,100300.05
2019-05-02T21:01:35.477Z,100296.19
2019-05-02T21:04:06.393Z,100295.55
2019-05-02T21:06:41.993Z,100299.24
2019-05-02T21:09:15.829Z,100302.80
2019-05-02T21:11:52.469Z,100314.91
2019-05-02T21:14:23.446Z,100311.90
2019-05-02T21:16:54.399Z,100310.36
2019-05-02T21:19:25.296Z,100303.60
2019-05-02T21:21:56.349Z,100308.64
2019-05-02T21:24:27.245Z,100305.31
2019-05-02T21:26:58.129Z,100305.95
2019-05-02T21:29:29.023Z,100312.49
2019-05-02T21:31:59.916Z,100308.72
2019-05-02T21:34:31.856Z,100316.20
2019-05-02T21:37:02.795Z,100318.25
2019-05-02T21:39:33.684Z,100318.87
2019-05-02T21:42:04.630Z,100309.83
2019-05-02T21:44:35.550Z,100313.70
2019-05-02T21:47:06.460Z,100313.64
2019-05-02T21:49:39.006Z,100315.06
2019-05-02T21:52:17.387Z,100313.48
2019-05-02T21:54:49.938Z,100314.20
2019-05-02T21:57:22.676Z,100311.96
2019-05-02T21:59:54.559Z,100326.87
2019-05-02T22:02:25.554Z,100325.13
2019-05-02T22:04:56.471Z,100334.75
2019-05-02T22:07:27.460Z,100332.51
2019-05-02T22:09:58.326Z,100330.22
2019-05-02T22:12:29.255Z,100323.94
2019-05-02T22:15:02.345Z,100326.74
2019-05-02T22:17:33.308Z,100329.13
2019-05-02T22:20:05.993Z,100331.53
2019-05-02T22:22:36.898Z,100323.02
2019-05-02T22:25:08.169Z,100339.64
2019-05-02T22:27:39.038Z,100332.71
2019-05-02T22:30:09.943Z,100336.22
2019-05-02T22:32:42.620Z,100343.64
2019-05-02T22:35:13.602Z,100339.20
2019-05-02T22:37:46.137Z,100336.97
2019-05-02T22:40:17.811Z,100342.83
2019-05-02T22:42:52.349Z,100335.19
2019-05-02T22:45:23.278Z,100341.05
2019-05-02T22:47:54.439Z,100347.61
2019-05-02T22:50:25.327Z,100348.33
2019-05-02T22:52:56.204Z,100346.30
2019-05-02T22:55:27.084Z,100355.95
2019-05-02T22:57:57.956Z,100355.02
2019-05-02T23:00:28.851Z,100354.15
2019-05-02T23:03:01.781Z,100351.44
2019-05-02T23:05:34.409Z,100355.03
2019-05-02T23:08:05.367Z,100357.16
2019-05-02T23:10:36.327Z,100356.40
2019-05-02T23:13:07.202Z,100360.31
2019-05-02T23:15:38.088Z,100357.21
2019-05-02T23:18:08.968Z,100366.58
2019-05-02T23:20:42.075Z,100362.80
2019-05-02T23:23:12.573Z,100370.40
2019-05-02T23:26:01.328Z,100365.27
2019-05-02T23:28:33.845Z,100373.98
2019-05-02T23:31:04.795Z,100369.19
2019-05-02T23:33:53.635Z,100374.08
2019-05-02T23:36:24.511Z,100365.59
2019-05-02T23:38:55.395Z,100374.47
2019-05-02T23:41:26.348Z,100372.95
2019-05-02T23:43:57.222Z,100375.75
2019-05-02T23:46:28.104Z,100378.09
2019-05-02T23:48:58.984Z,100379.84
2019-05-02T23:51:31.895Z,100375.44
2019-05-02T23:54:02.452Z,100375.13
2019-05-02T23:56:33.361Z,100375.02
2019-05-02T23:59:04.240Z,100375.95
